sensor_id;sensor_type;location;lat;lon;timestamp;pressure;altitude;pressure_sealevel;temperature;humidity
48644;BME280;34928;37.302;-121.984;2023-04-26T00:05:59;100560.0;;;28.95;20.97
48644;BME280;34928;37.302;-121.984;2023-04-26T00:16:03;100563.0;;;29.18;21.32
48644;BME280;34928;37.302;-121.984;2023-04-26T00:26:09;100572.0;;;29.14;21.84
48644;BME280;34928;37.302;-121.984;2023-04-26T00:36:13;100582.0;;;29.40;21.71
48644;BME280;34928;37.302;-121.984;2023-04-26T00:46:18;100585.0;;;29.36;21.57
48644;BME280;34928;37.302;-121.984;2023-04-26T00:56:24;100589.0;;;29.51;21.26
48644;BME280;34928;37.302;-121.984;2023-04-26T01:06:33;100597.0;;;29.67;21.28
48644;BME280;34928;37.302;-121.984;2023-04-26T01:16:38;100601.0;;;29.72;20.51
48644;BME280;34928;37.302;-121.984;2023-04-26T01:26:43;100603.0;;;29.66;21.70
48644;BME280;34928;37.302;-121.984;2023-04-26T01:36:49;100615.0;;;29.46;21.84
48644;BME280;34928;37.302;-121.984;2023-04-26T01:46:53;100619.0;;;30.14;22.25
48644;BME280;34928;37.302;-121.984;2023-04-26T01:56:58;100631.0;;;29.85;22.19
48644;BME280;34928;37.302;-121.984;2023-04-26T02:07:03;100638.0;;;29.51;22.32
48644;BME280;34928;37.302;-121.984;2023-04-26T02:17:08;100644.0;;;30.00;22.37
48644;BME280;34928;37.302;-121.984;2023-04-26T02:27:13;100652.0;;;29.90;22.51
48644;BME280;34928;37.302;-121.984;2023-04-26T02:37:18;100668.0;;;29.69;22.48
48644;BME280;34928;37.302;-121.984;2023-04-26T02:47:25;100687.0;;;29.92;22.62
48644;BME280;34928;37.302;-121.984;2023-04-26T02:57:33;100690.0;;;29.94;22.47
48644;BME280;34928;37.302;-121.984;2023-04-26T03:07:38;100706.0;;;29.88;22.51
48644;BME280;34928;37.302;-121.984;2023-04-26T03:17:43;100715.0;;;29.60;22.45
48644;BME280;34928;37.302;-121.984;2023-04-26T03:27:48;100730.0;;;29.76;22.31
48644;BME280;34928;37.302;-121.984;2023-04-26T03:37:53;100731.0;;;29.53;22.54
48644;BME280;34928;37.302;-121.984;2023-04-26T03:47:58;100741.0;;;29.67;22.33
48644;BME280;34928;37.302;-121.984;2023-04-26T03:58:02;100754.0;;;29.52;22.50
48644;BME280;34928;37.302;-121.984;2023-04-26T04:08:09;100768.0;;;30.05;22.64
48644;BME280;34928;37.302;-121.984;2023-04-26T04:18:14;100772.0;;;30.08;22.71
48644;BME280;34928;37.302;-121.984;2023-04-26T04:28:18;100783.0;;;29.35;22.25
48644;BME280;34928;37.302;-121.984;2023-04-26T04:38:24;100794.0;;;29.77;22.67
48644;BME280;34928;37.302;-121.984;2023-04-26T04:48:28;100804.0;;;29.78;22.70
48644;BME280;34928;37.302;-121.984;2023-04-26T04:58:33;100810.0;;;29.93;22.69
48644;BME280;34928;37.302;-121.984;2023-04-26T05:08:38;100817.0;;;29.69;22.68
48644;BME280;34928;37.302;-121.984;2023-04-26T05:18:43;100812.0;;;29.76;22.93
48644;BME280;34928;37.302;-121.984;2023-04-26T05:28:48;100820.0;;;29.91;23.63
48644;BME280;34928;37.302;-121.984;2023-04-26T05:38:53;100818.0;;;29.84;22.55
48644;BME280;34928;37.302;-121.984;2023-04-26T05:48:58;100821.0;;;29.32;22.55
48644;BME280;34928;37.302;-121.984;2023-04-26T05:59:03;100818.0;;;29.56;22.55
48644;BME280;34928;37.302;-121.984;2023-04-26T06:09:08;100828.0;;;29.46;22.20
48644;BME280;34928;37.302;-121.984;2023-04-26T06:19:13;100828.0;;;29.26;21.81
48644;BME280;34928;37.302;-121.984;2023-04-26T06:29:18;100828.0;;;29.34;21.77
48644;BME280;34928;37.302;-121.984;2023-04-26T06:39:22;100828.0;;;29.29;21.66
48644;BME280;34928;37.302;-121.984;2023-04-26T06:49:28;100812.0;;;29.06;21.50
48644;BME280;34928;37.302;-121.984;2023-04-26T06:59:33;100816.0;;;29.29;22.46
48644;BME280;34928;37.302;-121.984;2023-04-26T07:09:38;100816.0;;;29.18;22.33
48644;BME280;34928;37.302;-121.984;2023-04-26T07:19:42;100818.0;;;29.18;22.29
48644;BME280;34928;37.302;-121.984;2023-04-26T07:29:50;100810.0;;;29.17;22.24
48644;BME280;34928;37.302;-121.984;2023-04-26T07:39:59;100819.0;;;29.08;22.31
48644;BME280;34928;37.302;-121.984;2023-04-26T07:50:10;100823.0;;;29.00;22.31
48644;BME280;34928;37.302;-121.984;2023-04-26T08:00:15;100819.0;;;28.84;22.38
48644;BME280;34928;37.302;-121.984;2023-04-26T08:10:23;100822.0;;;28.96;22.65
48644;BME280;34928;37.302;-121.984;2023-04-26T08:20:28;100828.0;;;28.88;22.62
48644;BME280;34928;37.302;-121.984;2023-04-26T08:30:33;100816.0;;;28.80;22.65
48644;BME280;34928;37.302;-121.984;2023-04-26T08:40:38;100821.0;;;28.91;22.79
48644;BME280;34928;37.302;-121.984;2023-04-26T08:50:44;100810.0;;;28.86;22.81
48644;BME280;34928;37.302;-121.984;2023-04-26T09:00:49;100808.0;;;28.48;22.84
48644;BME280;34928;37.302;-121.984;2023-04-26T09:10:53;100802.0;;;28.39;22.97
48644;BME280;34928;37.302;-121.984;2023-04-26T09:21:04;100798.0;;;28.51;23.11
48644;BME280;34928;37.302;-121.984;2023-04-26T09:31:08;100795.0;;;28.10;23.24
48644;BME280;34928;37.302;-121.984;2023-04-26T09:41:13;100792.0;;;28.09;23.36
48644;BME280;34928;37.302;-121.984;2023-04-26T09:51:18;100794.0;;;28.21;23.44
48644;BME280;34928;37.302;-121.984;2023-04-26T10:01:24;100782.0;;;28.06;23.42
48644;BME280;34928;37.302;-121.984;2023-04-26T10:11:29;100786.0;;;28.19;23.51
48644;BME280;34928;37.302;-121.984;2023-04-26T10:21:37;100787.0;;;27.81;23.51
48644;BME280;34928;37.302;-121.984;2023-04-26T10:52:25;100800.0;;;27.71;23.64
48644;BME280;34928;37.302;-121.984;2023-04-26T11:13:00;100808.0;;;26.95;23.26
48644;BME280;34928;37.302;-121.984;2023-04-26T11:23:03;100806.0;;;27.06;23.10
48644;BME280;34928;37.302;-121.984;2023-04-26T11:33:18;100810.0;;;26.94;23.38
48644;BME280;34928;37.302;-121.984;2023-04-26T11:43:28;100810.0;;;27.00;23.10
48644;BME280;34928;37.302;-121.984;2023-04-26T11:53:37;100805.0;;;27.04;23.10
48644;BME280;34928;37.302;-121.984;2023-04-26T12:03:42;100801.0;;;27.09;23.42
48644;BME280;34928;37.302;-121.984;2023-04-26T12:13:48;100791.0;;;26.62;23.29
48644;BME280;34928;37.302;-121.984;2023-04-26T12:23:53;100789.0;;;26.65;23.17
48644;BME280;34928;37.302;-121.984;2023-04-26T12:33:58;100782.0;;;26.40;23.26
48644;BME280;34928;37.302;-121.984;2023-04-26T12:44:03;100794.0;;;26.53;23.24
48644;BME280;34928;37.302;-121.984;2023-04-26T12:54:08;100796.0;;;26.17;23.21
48644;BME280;34928;37.302;-121.984;2023-04-26T13:04:13;100802.0;;;26.30;23.23
48644;BME280;34928;37.302;-121.984;2023-04-26T13:14:18;100811.0;;;25.92;23.27
48644;BME280;34928;37.302;-121.984;2023-04-26T13:24:22;100813.0;;;26.10;23.31
48644;BME280;34928;37.302;-121.984;2023-04-26T13:34:29;100823.0;;;26.13;23.27
48644;BME280;34928;37.302;-121.984;2023-04-26T13:44:33;100834.0;;;26.08;23.30
48644;BME280;34928;37.302;-121.984;2023-04-26T13:54:38;100841.0;;;26.00;23.43
48644;BME280;34928;37.302;-121.984;2023-04-26T14:04:43;100841.0;;;25.88;23.41
48644;BME280;34928;37.302;-121.984;2023-04-26T14:14:48;100853.0;;;25.76;23.45
48644;BME280;34928;37.302;-121.984;2023-04-26T14:24:53;100867.0;;;26.02;23.18
48644;BME280;34928;37.302;-121.984;2023-04-26T14:34:58;100873.0;;;25.83;23.65
48644;BME280;34928;37.302;-121.984;2023-04-26T14:45:03;100893.0;;;25.74;23.42
48644;BME280;34928;37.302;-121.984;2023-04-26T14:55:08;100904.0;;;25.46;23.62
48644;BME280;34928;37.302;-121.984;2023-04-26T15:05:13;100898.0;;;25.73;23.60
48644;BME280;34928;37.302;-121.984;2023-04-26T15:15:18;100906.0;;;25.49;23.75
48644;BME280;34928;37.302;-121.984;2023-04-26T15:25:23;100902.0;;;25.73;23.93
48644;BME280;34928;37.302;-121.984;2023-04-26T15:35:28;100899.0;;;25.78;23.75
48644;BME280;34928;37.302;-121.984;2023-04-26T15:45:34;100896.0;;;25.66;23.98
48644;BME280;34928;37.302;-121.984;2023-04-26T15:55:39;100900.0;;;24.79;25.05
48644;BME280;34928;37.302;-121.984;2023-04-26T16:05:43;100901.0;;;24.73;25.48
48644;BME280;34928;37.302;-121.984;2023-04-26T16:15:48;100907.0;;;24.81;25.43
48644;BME280;34928;37.302;-121.984;2023-04-26T16:25:55;100908.0;;;24.78;25.42
48644;BME280;34928;37.302;-121.984;2023-04-26T16:35:58;100916.0;;;24.75;25.55
48644;BME280;34928;37.302;-121.984;2023-04-26T16:46:04;100926.0;;;24.69;25.72
48644;BME280;34928;37.302;-121.984;2023-04-26T16:56:08;100927.0;;;25.21;25.29
48644;BME280;34928;37.302;-121.984;2023-04-26T17:06:14;100941.0;;;25.14;25.47
48644;BME280;34928;37.302;-121.984;2023-04-26T17:16:18;100944.0;;;25.24;25.47
48644;BME280;34928;37.302;-121.984;2023-04-26T17:26:24;100938.0;;;25.67;25.18
48644;BME280;34928;37.302;-121.984;2023-04-26T17:36:29;100935.0;;;25.32;25.56
48644;BME280;34928;37.302;-121.984;2023-04-26T17:46:34;100937.0;;;25.02;26.27
48644;BME280;34928;37.302;-121.984;2023-04-26T17:56:39;100940.0;;;25.10;26.32
48644;BME280;34928;37.302;-121.984;2023-04-26T18:06:48;100941.0;;;25.50;25.96
48644;BME280;34928;37.302;-121.984;2023-04-26T18:16:53;100948.0;;;25.54;26.25
48644;BME280;34928;37.302;-121.984;2023-04-26T18:26:58;100945.0;;;25.89;25.60
48644;BME280;34928;37.302;-121.984;2023-04-26T18:37:04;100940.0;;;26.05;25.43
48644;BME280;34928;37.302;-121.984;2023-04-26T18:47:08;100927.0;;;26.38;25.15
48644;BME280;34928;37.302;-121.984;2023-04-26T18:57:14;100916.0;;;25.97;25.88
48644;BME280;34928;37.302;-121.984;2023-04-26T19:07:18;100901.0;;;25.92;26.02
48644;BME280;34928;37.302;-121.984;2023-04-26T19:17:23;100891.0;;;25.96;26.23
48644;BME280;34928;37.302;-121.984;2023-04-26T19:27:28;100881.0;;;25.47;26.32
48644;BME280;34928;37.302;-121.984;2023-04-26T19:37:33;100870.0;;;26.44;25.73
48644;BME280;34928;37.302;-121.984;2023-04-26T19:47:40;100857.0;;;26.67;25.48
48644;BME280;34928;37.302;-121.984;2023-04-26T19:57:48;100840.0;;;27.25;25.51
48644;BME280;34928;37.302;-121.984;2023-04-26T20:07:53;100834.0;;;27.29;25.20
48644;BME280;34928;37.302;-121.984;2023-04-26T20:17:58;100824.0;;;27.55;25.34
48644;BME280;34928;37.302;-121.984;2023-04-26T20:28:03;100811.0;;;27.41;25.60
48644;BME280;34928;37.302;-121.984;2023-04-26T20:38:08;100802.0;;;26.94;25.93
48644;BME280;34928;37.302;-121.984;2023-04-26T20:48:13;100789.0;;;26.84;25.89
48644;BME280;34928;37.302;-121.984;2023-04-26T20:58:19;100780.0;;;27.28;25.61
48644;BME280;34928;37.302;-121.984;2023-04-26T21:08:23;100778.0;;;27.15;25.76
48644;BME280;34928;37.302;-121.984;2023-04-26T21:18:28;100778.0;;;28.16;24.85
48644;BME280;34928;37.302;-121.984;2023-04-26T21:28:33;100782.0;;;28.36;24.37
48644;BME280;34928;37.302;-121.984;2023-04-26T21:38:37;100779.0;;;28.50;24.29
48644;BME280;34928;37.302;-121.984;2023-04-26T21:48:44;100775.0;;;28.75;24.00
48644;BME280;34928;37.302;-121.984;2023-04-26T21:58:50;100767.0;;;28.19;24.53
48644;BME280;34928;37.302;-121.984;2023-04-26T22:08:58;100749.0;;;28.38;24.56
48644;BME280;34928;37.302;-121.984;2023-04-26T22:19:03;100737.0;;;27.97;24.70
48644;BME280;34928;37.302;-121.984;2023-04-26T22:29:08;100717.0;;;28.54;24.55
48644;BME280;34928;37.302;-121.984;2023-04-26T22:39:14;100703.0;;;28.85;24.61
48644;BME280;34928;37.302;-121.984;2023-04-26T22:49:18;100684.0;;;28.78;24.91
48644;BME280;34928;37.302;-121.984;2023-04-26T22:59:27;100663.0;;;28.99;24.55
48644;BME280;34928;37.302;-121.984;2023-04-26T23:09:33;100645.0;;;28.94;24.39
48644;BME280;34928;37.302;-121.984;2023-04-26T23:19:37;100628.0;;;29.42;24.30
48644;BME280;34928;37.302;-121.984;2023-04-26T23:29:43;100626.0;;;29.77;23.96
48644;BME280;34928;37.302;-121.984;2023-04-26T23:39:48;100617.0;;;29.76;23.34
48644;BME280;34928;37.302;-121.984;2023-04-26T23:49:54;100605.0;;;29.69;23.38
48644;BME280;34928;37.302;-121.984;2023-04-26T23:59:58;100600.0;;;29.61;23.67
